createdAt,value
2024-02-07T00:00:00.431Z,95485.65
2024-02-07T00:02:30.197Z,95478.04
2024-02-07T00:04:58.504Z,95478.38
2024-02-07T00:07:26.692Z,95477.92
2024-02-07T00:09:54.817Z,95472.45
2024-02-07T00:12:23.233Z,95468.81
2024-02-07T00:14:51.607Z,95468.96
2024-02-07T00:17:19.667Z,95462.25
2024-02-07T00:19:48.963Z,95461.23
2024-02-07T00:22:17.369Z,95460.10
2024-02-07T00:24:45.594Z,95459.16
2024-02-07T00:27:13.913Z,95457.02
2024-02-07T00:29:42.020Z,95454.85
2024-02-07T00:32:10.292Z,95458.25
2024-02-07T00:34:38.691Z,95457.21
2024-02-07T00:37:06.908Z,95459.73
2024-02-07T00:39:38.158Z,95455.48
2024-02-07T00:42:06.565Z,95466.23
2024-02-07T00:44:34.628Z,95460.09
2024-02-07T00:47:02.792Z,95459.83
2024-02-07T00:49:31.067Z,95459.77
2024-02-07T00:52:00.418Z,95450.44
2024-02-07T00:54:29.249Z,95438.70
2024-02-07T00:56:57.332Z,95440.36
2024-02-07T00:59:25.388Z,95436.14
2024-02-07T01:02:37.304Z,95432.17
2024-02-07T01:05:06.242Z,95430.67
2024-02-07T01:07:34.512Z,95423.17
2024-02-07T01:10:02.712Z,95421.01
2024-02-07T01:12:30.993Z,95413.76
2024-02-07T01:14:59.560Z,95407.41
2024-02-07T01:17:27.928Z,95404.75
2024-02-07T01:19:56.356Z,95399.58
2024-02-07T01:22:24.705Z,95396.71
2024-02-07T01:24:53.585Z,95398.70
2024-02-07T01:27:21.844Z,95403.63
2024-02-07T01:29:50.354Z,95398.27
2024-02-07T01:32:18.630Z,95397.64
2024-02-07T01:34:47.027Z,95397.77
2024-02-07T01:37:16.042Z,95397.73
2024-02-07T01:39:44.570Z,95394.09
2024-02-07T01:42:12.854Z,95397.06
2024-02-07T01:44:41.275Z,95392.47
2024-02-07T01:47:14.262Z,95388.37
2024-02-07T01:49:49.953Z,95387.11
2024-02-07T01:52:22.467Z,95380.18
2024-02-07T01:54:51.596Z,95372.49
2024-02-07T01:57:21.058Z,95369.67
2024-02-07T01:59:50.961Z,95366.63
2024-02-07T02:02:20.655Z,95360.98
2024-02-07T02:04:49.296Z,95363.02
2024-02-07T02:07:19.339Z,95365.22
2024-02-07T02:09:47.562Z,95362.18
2024-02-07T02:12:15.926Z,95363.21
2024-02-07T02:14:44.817Z,95360.10
2024-02-07T02:17:13.018Z,95364.89
2024-02-07T02:19:41.288Z,95363.83
2024-02-07T02:22:32.094Z,95359.94
2024-02-07T02:25:13.123Z,95363.58
2024-02-07T02:28:40.888Z,95365.98
2024-02-07T02:31:14.970Z,95364.90
2024-02-07T02:33:45.496Z,95362.27
2024-02-07T02:36:14.036Z,95359.52
2024-02-07T02:38:42.703Z,95361.07
2024-02-07T02:41:11.141Z,95363.69
2024-02-07T02:43:40.810Z,95364.61
2024-02-07T02:46:10.861Z,95368.84
2024-02-07T02:48:40.760Z,95371.95
2024-02-07T02:51:09.339Z,95370.59
2024-02-07T02:53:38.743Z,95371.05
2024-02-07T02:56:07.517Z,95369.80
2024-02-07T02:58:42.841Z,95373.19
2024-02-07T03:01:13.630Z,95375.69
2024-02-07T03:03:45.800Z,95379.85
2024-02-07T03:06:29.975Z,95381.31
2024-02-07T03:09:20.715Z,95381.84
2024-02-07T03:11:49.833Z,95381.66
2024-02-07T03:14:18.159Z,95382.88
2024-02-07T03:16:47.315Z,95384.86
2024-02-07T03:19:15.585Z,95396.20
2024-02-07T03:21:45.195Z,95403.58
2024-02-07T03:24:13.430Z,95406.05
2024-02-07T03:26:41.567Z,95404.23
2024-02-07T03:29:09.872Z,95402.90
2024-02-07T03:31:38.730Z,95401.90
2024-02-07T03:34:08.058Z,95390.96
2024-02-07T03:36:36.435Z,95384.85
2024-02-07T03:39:08.382Z,95382.59
2024-02-07T03:41:36.672Z,95381.14
2024-02-07T03:44:10.452Z,95378.29
2024-02-07T03:46:39.011Z,95379.00
2024-02-07T03:49:08.856Z,95371.83
2024-02-07T03:51:39.012Z,95365.24
2024-02-07T03:54:08.983Z,95364.95
2024-02-07T03:56:37.046Z,95366.34
2024-02-07T03:59:05.255Z,95365.73
2024-02-07T04:01:33.439Z,95355.83
2024-02-07T04:04:01.853Z,95346.58
2024-02-07T04:06:30.427Z,95342.77
2024-02-07T04:08:59.084Z,95343.72
2024-02-07T04:11:27.354Z,95341.77
2024-02-07T04:13:55.470Z,95337.81
2024-02-07T04:16:42.151Z,95338.66
2024-02-07T04:19:31.530Z,95339.84
2024-02-07T04:22:18.331Z,95339.15
2024-02-07T04:25:04.936Z,95339.47
2024-02-07T04:27:51.462Z,95342.27
2024-02-07T04:30:38.184Z,95353.28
2024-02-07T04:33:25.259Z,95355.08
2024-02-07T04:36:11.740Z,95361.52
2024-02-07T04:38:58.348Z,95358.19
2024-02-07T04:41:44.793Z,95353.24
2024-02-07T04:44:31.310Z,95350.70
2024-02-07T04:47:17.907Z,95347.64
2024-02-07T04:50:04.718Z,95350.23
2024-02-07T04:52:51.312Z,95350.36
2024-02-07T04:55:38.110Z,95351.98
2024-02-07T04:58:24.803Z,95353.45
2024-02-07T05:01:11.467Z,95357.95
2024-02-07T05:03:57.954Z,95363.04
2024-02-07T05:06:44.778Z,95367.27
2024-02-07T05:09:31.201Z,95372.02
2024-02-07T05:12:17.917Z,95370.23
2024-02-07T05:14:48.780Z,95373.60
2024-02-07T05:17:23.012Z,95371.42
2024-02-07T05:19:52.164Z,95367.38
2024-02-07T05:22:20.999Z,95365.05
2024-02-07T05:24:49.283Z,95361.54
2024-02-07T05:27:18.948Z,95358.05
2024-02-07T05:29:47.213Z,95361.71
2024-02-07T05:32:15.435Z,95360.98
2024-02-07T05:34:43.745Z,95358.42
2024-02-07T05:37:11.949Z,95355.91
2024-02-07T05:39:40.708Z,95354.08
2024-02-07T05:42:08.866Z,95353.00
2024-02-07T05:44:37.063Z,95355.54
2024-02-07T05:47:05.386Z,95358.89
2024-02-07T05:49:33.801Z,95369.52
2024-02-07T05:52:03.510Z,95372.55
2024-02-07T05:54:32.140Z,95373.38
2024-02-07T05:57:00.440Z,95375.88
2024-02-07T05:59:31.629Z,95370.24
2024-02-07T06:01:59.984Z,95364.20
2024-02-07T06:04:28.302Z,95360.09
2024-02-07T06:06:56.843Z,95359.65
2024-02-07T06:09:25.216Z,95363.79
2024-02-07T06:11:53.426Z,95356.68
2024-02-07T06:14:21.575Z,95360.41
2024-02-07T06:16:50.916Z,95365.70
2024-02-07T06:19:19.968Z,95368.41
2024-02-07T06:21:50.870Z,95375.13
2024-02-07T06:24:22.095Z,95381.98
2024-02-07T06:26:50.220Z,95375.80
2024-02-07T06:29:18.570Z,95377.00
2024-02-07T06:31:46.850Z,95383.19
2024-02-07T06:34:22.629Z,95374.13
2024-02-07T06:37:16.998Z,95374.73
2024-02-07T06:39:45.109Z,95370.69
2024-02-07T06:42:13.392Z,95364.09
2024-02-07T06:44:41.436Z,95363.81
2024-02-07T06:47:09.576Z,95367.91
2024-02-07T06:49:38.052Z,95365.89
2024-02-07T06:52:06.540Z,95366.98
2024-02-07T06:54:34.579Z,95361.88
2024-02-07T06:57:02.855Z,95363.09
2024-02-07T06:59:30.864Z,95372.39
2024-02-07T07:01:59.252Z,95371.84
2024-02-07T07:04:27.496Z,95366.99
2024-02-07T07:06:55.578Z,95365.79
2024-02-07T07:09:23.686Z,95365.64
2024-02-07T07:11:51.851Z,95373.58
2024-02-07T07:14:19.947Z,95382.65
2024-02-07T07:16:48.077Z,95384.40
2024-02-07T07:19:17.297Z,95379.14
2024-02-07T07:21:45.571Z,95383.80
2024-02-07T07:24:13.542Z,95386.84
2024-02-07T07:26:41.678Z,95390.96
2024-02-07T07:29:11.909Z,95386.48
2024-02-07T07:31:40.269Z,95385.09
2024-02-07T07:34:08.662Z,95385.42
2024-02-07T07:36:36.984Z,95382.27
2024-02-07T07:39:07.172Z,95377.95
2024-02-07T07:41:38.376Z,95369.89
2024-02-07T07:44:09.408Z,95367.53
2024-02-07T07:46:37.691Z,95371.05
2024-02-07T07:49:05.954Z,95372.77
2024-02-07T07:51:34.352Z,95380.09
2024-02-07T07:54:02.590Z,95382.60
2024-02-07T07:56:32.601Z,95379.29
2024-02-07T07:59:01.054Z,95383.70
2024-02-07T08:01:29.642Z,95385.52
2024-02-07T08:03:57.860Z,95384.42
2024-02-07T08:06:26.080Z,95385.52
2024-02-07T08:08:54.315Z,95377.95
2024-02-07T08:11:22.442Z,95380.36
2024-02-07T08:13:50.778Z,95376.84
2024-02-07T08:16:19.191Z,95374.55
2024-02-07T08:18:48.468Z,95377.45
2024-02-07T08:21:17.727Z,95370.11
2024-02-07T08:23:45.919Z,95363.86
2024-02-07T08:26:14.043Z,95372.52
2024-02-07T08:28:42.205Z,95369.73
2024-02-07T08:31:12.863Z,95365.86
2024-02-07T08:33:41.197Z,95363.33
2024-02-07T08:36:09.950Z,95362.08
2024-02-07T08:38:38.901Z,95357.52
2024-02-07T08:41:07.227Z,95354.84
2024-02-07T08:43:35.376Z,95350.80
2024-02-07T08:46:03.536Z,95343.88
2024-02-07T08:48:31.957Z,95337.89
2024-02-07T08:51:00.269Z,95337.16
2024-02-07T08:53:28.962Z,95333.18
2024-02-07T08:56:02.727Z,95333.28
2024-02-07T08:58:33.911Z,95336.70
2024-02-07T09:01:03.937Z,95337.24
2024-02-07T09:03:32.328Z,95336.57
2024-02-07T09:06:00.656Z,95338.88
2024-02-07T09:08:33.414Z,95339.40
2024-02-07T09:11:04.943Z,95337.39
2024-02-07T09:13:33.049Z,95341.05
2024-02-07T09:16:00.987Z,95337.83
2024-02-07T09:18:29.145Z,95335.38
2024-02-07T09:21:00.028Z,95332.09
2024-02-07T09:23:28.190Z,95328.27
2024-02-07T09:25:56.256Z,95327.84
2024-02-07T09:28:35.791Z,95324.78
2024-02-07T09:31:06.614Z,95318.06
2024-02-07T09:33:34.796Z,95314.40
2024-02-07T09:36:03.139Z,95310.64
2024-02-07T09:38:31.389Z,95312.19
2024-02-07T09:41:02.598Z,95309.80
2024-02-07T09:43:30.800Z,95306.44
2024-02-07T09:45:59.837Z,95305.29
2024-02-07T09:48:29.050Z,95306.88
2024-02-07T09:51:01.709Z,95306.02
2024-02-07T09:53:36.220Z,95302.38
2024-02-07T09:59:45.015Z,95292.52
2024-02-07T10:02:17.677Z,95287.25
2024-02-07T10:04:53.990Z,95285.45
2024-02-07T10:07:22.519Z,95290.60
2024-02-07T10:09:56.826Z,95292.89
2024-02-07T10:12:25.588Z,95291.06
2024-02-07T10:14:53.663Z,95285.92
2024-02-07T10:17:21.829Z,95274.46
2024-02-07T10:19:53.957Z,95271.17
2024-02-07T10:22:22.436Z,95271.62
2024-02-07T10:24:50.791Z,95271.43
2024-02-07T10:27:20.790Z,95270.09
2024-02-07T10:29:50.066Z,95271.04
2024-02-07T10:32:19.606Z,95269.70
2024-02-07T10:34:57.130Z,95265.02
2024-02-07T10:37:26.594Z,95263.77
2024-02-07T10:40:02.164Z,95264.89
2024-02-07T10:42:30.475Z,95261.19
2024-02-07T10:45:11.733Z,95250.08
2024-02-07T10:47:40.204Z,95243.31
2024-02-07T10:50:11.861Z,95241.39
2024-02-07T10:52:42.691Z,95242.39
2024-02-07T10:55:14.457Z,95234.45
2024-02-07T10:57:46.842Z,95225.23
2024-02-07T11:00:17.108Z,95219.41
2024-02-07T11:02:48.974Z,95223.18
2024-02-07T11:05:19.147Z,95222.77
2024-02-07T11:07:48.400Z,95216.95
2024-02-07T11:10:18.185Z,95217.27
2024-02-07T11:12:49.029Z,95219.29
2024-02-07T11:15:17.359Z,95218.98
2024-02-07T11:17:45.708Z,95212.76
2024-02-07T11:20:14.063Z,95216.48
2024-02-07T11:22:52.549Z,95215.10
2024-02-07T11:25:23.810Z,95210.71
2024-02-07T11:27:53.220Z,95209.55
2024-02-07T11:30:21.503Z,95208.30
2024-02-07T11:32:52.926Z,95201.56
2024-02-07T11:35:24.414Z,95205.27
2024-02-07T11:37:53.504Z,95199.96
2024-02-07T11:40:25.508Z,95193.25
2024-02-07T11:43:03.319Z,95185.98
2024-02-07T11:45:32.052Z,95181.40
2024-02-07T11:48:00.422Z,95171.48
2024-02-07T11:50:36.732Z,95165.52
2024-02-07T11:53:05.521Z,95170.55
2024-02-07T11:55:42.121Z,95155.08
2024-02-07T11:58:10.446Z,95151.13
2024-02-07T12:00:39.099Z,95147.67
2024-02-07T12:03:14.155Z,95142.46
2024-02-07T12:05:44.838Z,95145.06
2024-02-07T12:08:15.086Z,95139.42
2024-02-07T12:10:43.542Z,95133.06
2024-02-07T12:13:12.324Z,95130.89
2024-02-07T12:15:41.529Z,95125.09
2024-02-07T12:18:10.374Z,95120.75
2024-02-07T12:24:06.293Z,95116.98
2024-02-07T12:26:34.504Z,95117.38
2024-02-07T12:29:07.668Z,95113.77
2024-02-07T12:31:36.094Z,95110.08
2024-02-07T12:34:04.537Z,95110.02
2024-02-07T12:36:34.456Z,95104.44
2024-02-07T12:39:02.442Z,95100.85
2024-02-07T12:41:30.688Z,95093.61
2024-02-07T12:43:58.780Z,95088.24
2024-02-07T12:46:26.966Z,95080.65
2024-02-07T12:48:56.701Z,95076.99
2024-02-07T12:51:27.474Z,95076.39
2024-02-07T12:53:55.690Z,95078.98
2024-02-07T12:56:24.664Z,95079.16
2024-02-07T12:58:53.063Z,95074.23
2024-02-07T13:01:27.829Z,95078.12
2024-02-07T13:03:57.344Z,95076.45
2024-02-07T13:06:26.201Z,95076.90
2024-02-07T13:08:54.379Z,95070.80
2024-02-07T13:11:22.571Z,95068.56
2024-02-07T13:13:50.772Z,95071.03
2024-02-07T13:16:21.531Z,95073.39
2024-02-07T13:18:50.011Z,95071.38
2024-02-07T13:21:18.349Z,95067.57
2024-02-07T13:23:46.866Z,95066.16
2024-02-07T13:26:15.075Z,95065.45
2024-02-07T13:28:44.259Z,95065.40
2024-02-07T13:31:12.443Z,95063.17
2024-02-07T13:33:40.983Z,95056.27
2024-02-07T13:36:09.273Z,95064.98
2024-02-07T13:38:38.213Z,95064.39
2024-02-07T13:41:07.274Z,95061.80
2024-02-07T13:43:35.617Z,95059.52
2024-02-07T13:46:03.990Z,95064.83
2024-02-07T13:48:32.384Z,95059.55
2024-02-07T13:51:03.561Z,95060.70
2024-02-07T13:53:31.866Z,95058.85
2024-02-07T13:56:00.183Z,95056.55
2024-02-07T13:58:30.788Z,95055.73
2024-02-07T14:01:00.110Z,95053.00
2024-02-07T14:03:28.370Z,95048.13
2024-02-07T14:05:56.726Z,95043.99
2024-02-07T14:08:24.996Z,95037.66
2024-02-07T14:10:53.469Z,95026.52
2024-02-07T14:13:21.534Z,95023.51
2024-02-07T14:15:49.697Z,95012.60
2024-02-07T14:21:53.293Z,95016.20
2024-02-07T14:24:21.438Z,95017.23
2024-02-07T14:26:49.493Z,95018.41
2024-02-07T14:29:17.572Z,95020.59
2024-02-07T14:31:45.827Z,95019.77
2024-02-07T14:34:16.296Z,95021.86
2024-02-07T14:36:44.788Z,95017.63
2024-02-07T14:39:13.003Z,95013.05
2024-02-07T14:41:41.308Z,95012.05
2024-02-07T14:44:09.527Z,95013.23
2024-02-07T14:46:37.753Z,95018.08
2024-02-07T14:49:07.038Z,95014.98
2024-02-07T14:51:35.567Z,95012.34
2024-02-07T14:54:04.301Z,95012.95
2024-02-07T14:56:34.439Z,95014.92
2024-02-07T14:59:02.879Z,95006.60
2024-02-07T15:01:32.355Z,95005.25
2024-02-07T15:04:00.447Z,94997.99
2024-02-07T15:06:28.735Z,95001.11
2024-02-07T15:08:56.751Z,94995.08
2024-02-07T15:11:24.801Z,94997.50
2024-02-07T15:13:52.990Z,94996.13
2024-02-07T15:16:21.193Z,94995.20
2024-02-07T15:18:49.325Z,94994.30
2024-02-07T15:21:17.472Z,94989.80
2024-02-07T15:23:45.441Z,94996.29
2024-02-07T15:26:13.499Z,94993.67
2024-02-07T15:28:41.564Z,94992.40
2024-02-07T15:31:09.559Z,94990.23
2024-02-07T15:33:40.163Z,94991.59
2024-02-07T15:36:10.262Z,94992.40
2024-02-07T15:38:38.244Z,94989.48
2024-02-07T15:41:06.392Z,94990.71
2024-02-07T15:43:34.501Z,94987.54
2024-02-07T15:46:02.696Z,94989.73
2024-02-07T15:48:30.750Z,94989.28
2024-02-07T15:51:01.891Z,94996.13
2024-02-07T15:53:30.265Z,94990.90
2024-02-07T15:55:58.728Z,94986.78
2024-02-07T15:58:26.870Z,94993.59
2024-02-07T16:00:58.915Z,94989.08
2024-02-07T16:03:26.968Z,94991.23
2024-02-07T16:05:55.423Z,94996.38
2024-02-07T16:08:23.440Z,94994.79
2024-02-07T16:10:51.677Z,94992.61
2024-02-07T16:13:19.913Z,94990.83
2024-02-07T16:15:47.963Z,94990.80
2024-02-07T16:18:16.109Z,94996.90
2024-02-07T16:20:44.843Z,95001.58
2024-02-07T16:23:12.854Z,95001.73
2024-02-07T16:25:40.943Z,95001.86
2024-02-07T16:28:09.034Z,95000.21
2024-02-07T16:30:37.459Z,95004.58
2024-02-07T16:33:06.829Z,95002.14
2024-02-07T16:35:35.081Z,95007.58
2024-02-07T16:38:03.461Z,95012.66
2024-02-07T16:40:33.715Z,95017.52
2024-02-07T16:43:05.186Z,95014.73
2024-02-07T16:45:37.408Z,95015.45
2024-02-07T16:48:06.448Z,95016.02
2024-02-07T16:50:34.623Z,95021.12
2024-02-07T16:53:04.819Z,95025.41
2024-02-07T16:55:33.695Z,95028.48
2024-02-07T16:58:01.848Z,95030.89
2024-02-07T17:00:30.079Z,95032.09
2024-02-07T17:02:58.309Z,95034.54
2024-02-07T17:05:26.543Z,95041.41
2024-02-07T17:07:57.155Z,95047.29
2024-02-07T17:10:25.520Z,95049.29
2024-02-07T17:12:53.955Z,95043.75
2024-02-07T17:15:22.040Z,95048.61
2024-02-07T17:17:50.320Z,95051.05
2024-02-07T17:20:19.107Z,95049.68
2024-02-07T17:22:47.794Z,95050.88
2024-02-07T17:25:16.705Z,95047.52
2024-02-07T17:27:44.768Z,95045.70
2024-02-07T17:30:37.228Z,95047.23
2024-02-07T17:33:06.553Z,95047.66
2024-02-07T17:35:35.150Z,95044.02
2024-02-07T17:38:03.661Z,95034.79
2024-02-07T17:40:32.019Z,95031.52
2024-02-07T17:43:00.304Z,95029.72
2024-02-07T17:45:28.752Z,95024.61
2024-02-07T17:47:57.079Z,95026.79
2024-02-07T17:50:27.266Z,95024.06
2024-02-07T17:52:55.628Z,95027.59
2024-02-07T17:55:23.898Z,95030.52
2024-02-07T17:57:54.613Z,95032.70
2024-02-07T18:00:23.571Z,95035.65
2024-02-07T18:02:52.600Z,95033.27
2024-02-07T18:05:26.571Z,95035.91
2024-02-07T18:08:01.376Z,95035.55
2024-02-07T18:10:33.195Z,95034.10
2024-02-07T18:13:04.950Z,95034.22
2024-02-07T18:15:33.699Z,95035.31
2024-02-07T18:18:05.192Z,95036.34
2024-02-07T18:20:35.530Z,95028.94
2024-02-07T18:23:04.060Z,95030.73
2024-02-07T18:25:34.367Z,95024.00
2024-02-07T18:28:02.454Z,95022.39
2024-02-07T18:30:30.695Z,95016.27
2024-02-07T18:32:59.006Z,95013.91
2024-02-07T18:35:28.302Z,95011.86
2024-02-07T18:37:56.586Z,95007.25
2024-02-07T18:40:26.363Z,95007.48
2024-02-07T18:42:54.672Z,95008.44
2024-02-07T18:45:26.471Z,95003.38
2024-02-07T18:48:01.564Z,95001.42
2024-02-07T18:50:30.168Z,94998.10
2024-02-07T18:52:59.261Z,94998.58
2024-02-07T18:55:27.803Z,94997.68
2024-02-07T18:57:58.431Z,94998.03
2024-02-07T19:00:26.548Z,94997.19
2024-02-07T19:02:54.663Z,94996.48
2024-02-07T19:05:23.000Z,94995.30
2024-02-07T19:07:51.224Z,94991.58
2024-02-07T19:10:19.358Z,94992.78
2024-02-07T19:12:47.429Z,94990.92
2024-02-07T19:15:15.670Z,94983.20
2024-02-07T19:17:43.916Z,94980.71
2024-02-07T19:20:12.362Z,94977.35
2024-02-07T19:22:40.783Z,94973.81
2024-02-07T19:25:09.517Z,94968.92
2024-02-07T19:27:41.725Z,94965.17
2024-02-07T19:30:10.940Z,94967.13
2024-02-07T19:32:40.975Z,94964.59
2024-02-07T19:35:09.813Z,94961.66
2024-02-07T19:37:38.603Z,94960.92
2024-02-07T19:40:10.368Z,94963.23
2024-02-07T19:42:38.731Z,94966.23
2024-02-07T19:45:10.784Z,94963.88
2024-02-07T19:47:39.112Z,94965.98
2024-02-07T19:50:09.359Z,94964.05
2024-02-07T19:52:39.019Z,94963.79
2024-02-07T19:55:07.535Z,94956.77
2024-02-07T19:57:35.850Z,94957.59
2024-02-07T20:00:04.470Z,94952.02
2024-02-07T20:02:52.211Z,94949.70
2024-02-07T20:05:21.317Z,94946.18
2024-02-07T20:07:49.745Z,94947.58
2024-02-07T20:10:18.137Z,94946.25
2024-02-07T20:12:47.291Z,94950.23
2024-02-07T20:15:16.808Z,94954.98
2024-02-07T20:17:45.759Z,94957.21
2024-02-07T20:20:14.459Z,94959.81
2024-02-07T20:22:42.751Z,94961.12
2024-02-07T20:25:13.481Z,94963.81
2024-02-07T20:27:42.033Z,94964.93
2024-02-07T20:30:10.498Z,94963.58
2024-02-07T20:32:38.864Z,94963.20
2024-02-07T20:35:07.672Z,94961.22
2024-02-07T20:37:36.025Z,94959.70
2024-02-07T20:40:04.458Z,94960.52
2024-02-07T20:42:32.799Z,94955.59
2024-02-07T20:45:01.046Z,94952.63
2024-02-07T20:47:36.746Z,94953.40
2024-02-07T20:50:06.272Z,94954.63
2024-02-07T20:52:34.999Z,94953.73
2024-02-07T20:55:03.761Z,94948.90
2024-02-07T20:57:32.076Z,94953.23
2024-02-07T21:00:02.439Z,94953.52
2024-02-07T21:02:33.406Z,94950.86
2024-02-07T21:05:01.828Z,94950.79
2024-02-07T21:07:32.951Z,94949.27
2024-02-07T21:10:01.517Z,94952.16
2024-02-07T21:12:29.855Z,94951.62
2024-02-07T21:14:58.163Z,94950.80
2024-02-07T21:17:29.450Z,94949.08
2024-02-07T21:19:58.432Z,94948.48
2024-02-07T21:22:26.719Z,94948.64
2024-02-07T21:24:55.045Z,94949.45
2024-02-07T21:27:23.229Z,94949.58
2024-02-07T21:29:54.493Z,94948.52
2024-02-07T21:32:23.066Z,94945.52
2024-02-07T21:34:52.605Z,94945.60
2024-02-07T21:37:20.899Z,94946.11
2024-02-07T21:39:49.362Z,94944.33
2024-02-07T21:42:17.495Z,94942.88
2024-02-07T21:44:45.563Z,94941.40
2024-02-07T21:47:16.895Z,94943.11
2024-02-07T21:49:45.398Z,94946.54
2024-02-07T21:52:13.777Z,94945.30
2024-02-07T21:54:42.588Z,94946.35
2024-02-07T21:57:11.235Z,94951.50
2024-02-07T21:59:40.018Z,94957.66
2024-02-07T22:02:11.159Z,94960.83
2024-02-07T22:04:53.655Z,94956.09
2024-02-07T22:07:26.302Z,94956.55
2024-02-07T22:09:54.815Z,94948.17
2024-02-07T22:12:25.393Z,94945.71
2024-02-07T22:14:54.994Z,94938.27
2024-02-07T22:17:23.412Z,94930.79
2024-02-07T22:19:53.479Z,94928.05
2024-02-07T22:22:22.331Z,94920.82
2024-02-07T22:24:50.695Z,94923.09
2024-02-07T22:27:18.948Z,94929.84
2024-02-07T22:29:47.286Z,94933.91
2024-02-07T22:32:15.790Z,94936.58
2024-02-07T22:34:44.185Z,94936.21
2024-02-07T22:37:15.818Z,94935.83
2024-02-07T22:39:44.000Z,94933.20
2024-02-07T22:42:14.133Z,94933.89
2024-02-07T22:44:43.353Z,94937.55
2024-02-07T22:47:14.279Z,94938.48
2024-02-07T22:49:43.077Z,94944.06
2024-02-07T22:52:11.499Z,94947.83
2024-02-07T22:54:39.728Z,94949.73
2024-02-07T22:57:08.545Z,94947.52
2024-02-07T22:59:36.713Z,94950.48
2024-02-07T23:02:05.306Z,94951.29
2024-02-07T23:04:33.518Z,94952.34
2024-02-07T23:07:03.065Z,94951.92
2024-02-07T23:09:31.296Z,94951.81
2024-02-07T23:11:59.408Z,94947.75
2024-02-07T23:14:27.798Z,94943.83
2024-02-07T23:16:56.112Z,94945.69
2024-02-07T23:19:26.595Z,94947.46
2024-02-07T23:21:55.170Z,94946.76
2024-02-07T23:24:23.302Z,94946.16
2024-02-07T23:26:51.518Z,94944.91
2024-02-07T23:29:19.671Z,94948.46
2024-02-07T23:31:48.437Z,94947.58
2024-02-07T23:34:16.562Z,94947.83
2024-02-07T23:36:45.574Z,94949.38
2024-02-07T23:39:13.926Z,94950.73
2024-02-07T23:41:42.118Z,94953.98
2024-02-07T23:44:10.411Z,94959.60
2024-02-07T23:46:38.702Z,94959.98
2024-02-07T23:49:07.217Z,94961.52
2024-02-07T23:51:36.291Z,94964.51
2024-02-07T23:54:04.614Z,94962.15
2024-02-07T23:56:32.776Z,94956.40
2024-02-07T23:59:01.733Z,94950.43
